Time;durP1;ratioP1;P1;durP2;ratioP2;P2;SDS_P1;SDS_P2;PMS_P1;PMS_P2;Temp;Humidity;BMP_temperature;BMP_pressure;BME280_temperature;BME280_humidity;BME280_pressure;Samples;Min_cycle;Max_cycle;Signal;HPM_P1;HPM_P2
2023/09/10 00:02:37;;;;;;;10.82;6.15;;;;;;;17.25;100.00;100706.44;5590356;31;33838;-66
2023/09/10 00:05:41;;;;;;;8.75;6.00;;;;;;;17.23;100.00;100710.38;5590907;31;33758;-66
2023/09/10 00:08:43;;;;;;;13.07;6.12;;;;;;;17.18;100.00;100713.66;5590319;31;34097;-66
2023/09/10 00:11:47;;;;;;;11.50;6.65;;;;;;;17.21;100.00;100709.75;5590168;31;34111;-66
2023/09/10 00:14:49;;;;;;;8.48;6.20;;;;;;;17.21;100.00;100709.75;5590546;31;33911;-66
2023/09/10 00:17:52;;;;;;;9.60;6.07;;;;;;;17.14;100.00;100706.19;5590315;31;34543;-66
2023/09/10 00:20:55;;;;;;;10.65;6.10;;;;;;;17.14;100.00;100700.84;5590235;31;33940;-66
2023/09/10 00:23:58;;;;;;;10.18;6.45;;;;;;;17.19;100.00;100709.09;5590191;31;33914;-66
2023/09/10 00:27:01;;;;;;;11.00;6.50;;;;;;;17.12;100.00;100706.44;5590145;31;33981;-66
2023/09/10 00:30:05;;;;;;;11.77;6.65;;;;;;;17.01;100.00;100709.69;5590146;31;33825;-66
2023/09/10 00:33:07;;;;;;;7.25;6.07;;;;;;;16.98;100.00;100706.59;5590486;31;33900;-65
2023/09/10 00:36:11;;;;;;;10.02;6.32;;;;;;;17.05;100.00;100704.75;5590162;31;34470;-66
2023/09/10 00:39:14;;;;;;;9.10;6.07;;;;;;;17.03;100.00;100707.63;5590062;31;34619;-66
2023/09/10 00:42:17;;;;;;;8.05;6.15;;;;;;;16.97;100.00;100710.28;5589964;31;34156;-65
2023/09/10 00:45:20;;;;;;;8.05;6.00;;;;;;;16.83;100.00;100712.09;5588168;31;33898;-66
2023/09/10 00:48:24;;;;;;;8.65;5.90;;;;;;;16.78;100.00;100711.87;5590006;31;33984;-66
2023/09/10 00:51:28;;;;;;;7.90;6.47;;;;;;;16.74;100.00;100705.25;5590046;31;33884;-66
2023/09/10 00:54:33;;;;;;;7.85;6.00;;;;;;;16.78;100.00;100706.50;5590442;31;33847;-66
2023/09/10 00:57:36;;;;;;;8.82;5.93;;;;;;;16.91;100.00;100706.56;5590208;31;33822;-66
2023/09/10 01:00:43;;;;;;;9.55;6.37;;;;;;;16.93;100.00;100704.50;5589027;31;33900;-66
2023/09/10 01:03:45;;;;;;;9.57;6.20;;;;;;;16.82;100.00;100716.62;5589928;31;34871;-66
2023/09/10 01:06:51;;;;;;;8.25;5.97;;;;;;;16.71;100.00;100709.16;5589813;31;34770;-66
2023/09/10 01:09:54;;;;;;;8.13;6.20;;;;;;;16.76;100.00;100711.22;5589842;31;34142;-66
2023/09/10 01:13:10;;;;;;;18.80;6.70;;;;;;;16.77;100.00;100707.53;5589623;31;34158;-66
2023/09/10 01:16:20;;;;;;;11.50;6.80;;;;;;;16.79;100.00;100708.19;5589803;31;34019;-66
2023/09/10 01:19:39;;;;;;;13.10;6.87;;;;;;;16.79;100.00;100706.31;5590189;31;34537;-66
2023/09/10 01:23:04;;;;;;;9.77;6.40;;;;;;;16.73;100.00;100704.44;5589833;31;33917;-66
2023/09/10 01:26:07;;;;;;;10.73;6.47;;;;;;;16.61;100.00;100711.37;5589669;31;34497;-66
2023/09/10 01:29:13;;;;;;;8.70;6.57;;;;;;;16.46;100.00;100707.97;5589771;31;34884;-66
2023/09/10 01:32:28;;;;;;;9.70;6.40;;;;;;;16.47;100.00;100706.94;5589766;31;33956;-66
2023/09/10 01:35:50;;;;;;;10.80;6.22;;;;;;;16.54;100.00;100702.47;5589899;31;34663;-66
2023/09/10 01:39:00;;;;;;;11.20;6.35;;;;;;;16.41;100.00;100708.56;5589574;31;33972;-66
2023/09/10 01:42:07;;;;;;;;;;;;;;;16.33;100.00;100706.06;5589823;31;33875;-66
2023/09/10 01:45:11;;;;;;;9.93;6.30;;;;;;;16.30;100.00;100708.31;5589380;31;34161;-66
2023/09/10 01:48:13;;;;;;;8.43;6.50;;;;;;;16.47;100.00;100701.59;5589517;31;33878;-66
2023/09/10 01:51:17;;;;;;;8.60;6.80;;;;;;;16.53;100.00;100715.03;5589386;31;34609;-66
2023/09/10 01:54:20;;;;;;;12.10;6.30;;;;;;;16.59;100.00;100717.97;5589053;31;33807;-66
2023/09/10 01:57:23;;;;;;;8.48;6.37;;;;;;;16.46;100.00;100714.16;5589044;31;34020;-66
2023/09/10 02:00:25;;;;;;;8.45;6.32;;;;;;;16.44;100.00;100710.84;5589507;31;34672;-65
2023/09/10 02:03:28;;;;;;;8.60;6.07;;;;;;;16.25;100.00;100713.41;5589214;31;33894;-66
2023/09/10 02:06:31;;;;;;;10.35;7.00;;;;;;;16.14;100.00;100708.59;5589518;31;34900;-66
2023/09/10 02:09:34;;;;;;;9.23;6.80;;;;;;;16.06;100.00;100720.28;5589120;31;33894;-66
2023/09/10 02:12:37;;;;;;;9.90;6.85;;;;;;;16.01;100.00;100712.03;5589075;31;34462;-66
2023/09/10 02:15:40;;;;;;;10.95;7.80;;;;;;;16.00;100.00;100716.53;5589029;31;34005;-66
2023/09/10 02:18:43;;;;;;;11.38;6.80;;;;;;;16.08;100.00;100720.91;5589161;31;34015;-66
2023/09/10 02:21:46;;;;;;;15.88;7.30;;;;;;;16.10;100.00;100710.84;5589029;31;33795;-66
2023/09/10 02:24:50;;;;;;;9.00;6.82;;;;;;;16.01;100.00;100712.03;5589009;31;33898;-66
2023/09/10 02:27:56;;;;;;;11.05;7.40;;;;;;;15.92;100.00;100716.69;5589381;31;33887;-66
2023/09/10 02:31:06;;;;;;;10.32;6.85;;;;;;;15.85;100.00;100715.81;5589144;31;34506;-66
2023/09/10 02:34:09;;;;;;;10.90;6.95;;;;;;;15.80;100.00;100715.56;5589084;31;33829;-65
2023/09/10 02:37:14;;;;;;;13.05;7.00;;;;;;;15.72;100.00;100715.72;5588785;31;34466;-66
2023/09/10 02:40:17;;;;;;;12.90;7.32;;;;;;;15.68;100.00;100710.94;5588408;31;33942;-66
2023/09/10 02:43:20;;;;;;;11.82;7.00;;;;;;;15.70;100.00;100715.06;5588198;31;33778;-66
2023/09/10 02:46:25;;;;;;;10.20;6.95;;;;;;;15.68;100.00;100706.41;5588398;31;34159;-66
2023/09/10 02:49:28;;;;;;;8.40;7.05;;;;;;;15.69;100.00;100712.56;5588491;31;33854;-66
2023/09/10 02:52:31;;;;;;;11.15;7.47;;;;;;;15.63;100.00;100711.53;5588414;31;34004;-66
2023/09/10 02:55:36;;;;;;;10.40;7.32;;;;;;;15.57;100.00;100710.44;5588719;31;34485;-66
2023/09/10 02:58:39;;;;;;;11.52;7.30;;;;;;;15.50;100.00;100700.66;5588444;31;33770;-66
2023/09/10 03:01:42;;;;;;;14.43;7.10;;;;;;;15.46;100.00;100708.22;5588209;31;33907;-66
2023/09/10 03:04:45;;;;;;;8.63;7.12;;;;;;;15.45;100.00;100706.56;5588595;31;33817;-66
2023/09/10 03:07:53;;;;;;;9.98;6.97;;;;;;;15.39;100.00;100698.50;5588387;31;33916;-66
2023/09/10 03:10:56;;;;;;;9.38;7.07;;;;;;;15.39;100.00;100701.19;5590798;31;33923;-66
2023/09/10 03:13:59;;;;;;;10.13;6.85;;;;;;;15.39;100.00;100699.34;5590764;31;33722;-66
2023/09/10 03:17:02;;;;;;;9.80;7.07;;;;;;;15.37;100.00;100700.53;5590591;31;34201;-66
2023/09/10 03:20:09;;;;;;;10.20;7.10;;;;;;;15.34;100.00;100701.75;5591110;31;33757;-66
2023/09/10 03:23:12;;;;;;;10.40;6.90;;;;;;;15.35;100.00;100691.88;5590687;31;33828;-66
2023/09/10 03:26:14;;;;;;;9.00;7.07;;;;;;;15.28;100.00;100697.16;5590683;31;33995;-66
2023/09/10 03:29:18;;;;;;;8.57;6.90;;;;;;;15.25;100.00;100700.19;5591122;31;33811;-66
2023/09/10 03:32:20;;;;;;;9.82;7.15;;;;;;;15.23;100.00;100700.41;5590707;31;34772;-66
2023/09/10 03:35:24;;;;;;;8.50;7.05;;;;;;;15.21;100.00;100702.44;5590513;31;34611;-66
2023/09/10 03:38:27;;;;;;;10.77;7.35;;;;;;;15.20;100.00;100702.66;5590926;31;33929;-66
2023/09/10 03:41:30;;;;;;;9.27;6.82;;;;;;;15.18;100.00;100697.47;5590538;31;33912;-66
2023/09/10 03:44:33;;;;;;;12.45;7.03;;;;;;;15.16;100.00;100690.66;5590713;31;34913;-66
2023/09/10 03:47:37;;;;;;;10.98;6.87;;;;;;;15.11;100.00;100698.41;5590709;31;34087;-66
2023/09/10 03:50:40;;;;;;;8.68;6.93;;;;;;;15.13;100.00;100697.22;5590889;31;33877;-67
2023/09/10 03:53:43;;;;;;;12.02;7.07;;;;;;;15.20;100.00;100695.44;5590530;31;33875;-67
2023/09/10 03:56:46;;;;;;;9.60;7.00;;;;;;;15.18;100.00;100696.66;5590799;31;34801;-67
2023/09/10 03:59:49;;;;;;;10.45;7.20;;;;;;;15.13;100.00;100699.88;5590718;31;33828;-66
2023/09/10 04:02:52;;;;;;;8.70;6.90;;;;;;;15.04;100.00;100701.03;5590335;31;33807;-67
2023/09/10 04:05:55;;;;;;;9.38;6.90;;;;;;;15.01;100.00;100703.22;5590339;31;33870;-66
2023/09/10 04:08:59;;;;;;;7.85;6.20;;;;;;;15.03;100.00;100701.22;5590376;31;33891;-66
2023/09/10 04:12:02;;;;;;;12.13;7.43;;;;;;;14.98;100.00;100703.62;5590363;31;34430;-67
2023/09/10 04:15:05;;;;;;;9.40;6.45;;;;;;;15.02;100.00;100707.56;5590375;31;33958;-67
2023/09/10 04:18:08;;;;;;;12.60;6.87;;;;;;;14.99;100.00;100706.09;5590451;31;34054;-66
2023/09/10 04:21:11;;;;;;;11.32;6.95;;;;;;;14.97;100.00;100705.44;5590448;31;33806;-67
2023/09/10 04:24:14;;;;;;;10.57;6.80;;;;;;;14.99;100.00;100713.28;5590294;31;33342;-67
2023/09/10 04:27:17;;;;;;;9.25;7.07;;;;;;;15.04;100.00;100702.88;5590252;31;34060;-67
2023/09/10 04:30:20;;;;;;;9.73;6.47;;;;;;;15.07;100.00;100707.81;5590229;31;33919;-67
2023/09/10 04:33:23;;;;;;;11.98;7.50;;;;;;;14.99;100.00;100706.09;5590467;31;34633;-67
2023/09/10 04:36:26;;;;;;;10.20;6.90;;;;;;;15.02;100.00;100710.22;5590488;31;34089;-67
2023/09/10 04:39:29;;;;;;;10.35;7.40;;;;;;;15.04;100.00;100714.38;5590071;31;34020;-66
2023/09/10 04:42:34;;;;;;;10.00;7.20;;;;;;;15.08;100.00;100718.34;5590316;31;33970;-66
2023/09/10 04:45:37;;;;;;;11.88;6.87;;;;;;;15.10;100.00;100724.28;5589976;31;33961;-67
2023/09/10 04:48:40;;;;;;;9.77;6.80;;;;;;;15.15;100.00;100723.75;5589959;31;34065;-66
2023/09/10 04:51:43;;;;;;;11.75;7.00;;;;;;;15.19;100.00;100727.72;5590057;31;33872;-67
2023/09/10 04:54:46;;;;;;;10.43;6.82;;;;;;;15.30;100.00;100726.38;5590025;31;33881;-67
2023/09/10 04:57:49;;;;;;;10.55;6.72;;;;;;;15.38;100.00;100726.25;5590262;31;33857;-67
2023/09/10 05:00:53;;;;;;;11.15;6.78;;;;;;;15.46;100.00;100728.78;5589804;31;33841;-67
2023/09/10 05:03:56;;;;;;;13.57;7.32;;;;;;;15.55;100.00;100736.53;5590177;31;33897;-66
2023/09/10 05:06:59;;;;;;;10.73;7.05;;;;;;;15.63;100.00;100732.91;5589836;31;33898;-66
2023/09/10 05:10:02;;;;;;;9.10;6.68;;;;;;;15.68;100.00;100738.50;5589782;31;33848;-67
2023/09/10 05:13:05;;;;;;;10.45;6.25;;;;;;;15.76;100.00;100733.03;5589024;31;33900;-67
2023/09/10 05:16:08;;;;;;;9.15;6.75;;;;;;;15.84;100.00;100737.41;5589777;31;34616;-67
2023/09/10 05:19:11;;;;;;;10.75;6.70;;;;;;;15.97;100.00;100735.69;5589672;31;34436;-67
2023/09/10 05:22:14;;;;;;;10.60;6.50;;;;;;;16.05;100.00;100737.38;5589679;31;34126;-67
2023/09/10 05:25:17;;;;;;;10.93;7.37;;;;;;;16.21;100.00;100742.44;5589868;31;33946;-66
2023/09/10 05:28:21;;;;;;;11.07;6.82;;;;;;;16.35;100.00;100738.00;5589584;31;33759;-66
2023/09/10 05:31:24;;;;;;;9.02;6.87;;;;;;;16.44;100.00;100745.66;5588944;31;33727;-67
2023/09/10 05:34:27;;;;;;;11.43;6.82;;;;;;;16.59;100.00;100742.91;5589620;31;34001;-67
2023/09/10 05:37:30;;;;;;;7.85;6.70;;;;;;;16.73;100.00;100755.34;5589622;31;34757;-67
2023/09/10 05:40:36;;;;;;;12.48;6.55;;;;;;;16.85;100.00;100751.06;5589575;31;34010;-67
2023/09/10 05:43:40;;;;;;;9.45;6.32;;;;;;;17.00;100.00;100758.94;5589518;31;33871;-66
2023/09/10 05:46:44;;;;;;;10.35;6.40;;;;;;;17.08;100.00;100766.00;5589285;31;33822;-66
2023/09/10 05:49:47;;;;;;;9.13;6.05;;;;;;;17.18;100.00;100763.78;5589344;31;34023;-66
2023/09/10 05:52:50;;;;;;;11.02;6.28;;;;;;;17.32;100.00;100760.94;5589474;31;34409;-66
2023/09/10 05:55:54;;;;;;;10.60;6.80;;;;;;;17.47;100.00;100770.66;5589445;31;34002;-66
2023/09/10 05:58:57;;;;;;;12.75;6.68;;;;;;;17.46;100.00;100774.38;5589376;31;33403;-66
2023/09/10 06:02:00;;;;;;;10.23;6.55;;;;;;;17.59;100.00;100764.53;5589543;31;34489;-67
2023/09/10 06:05:05;;;;;;;18.90;11.00;;;;;;;17.69;100.00;100766.81;5589129;31;34637;-67
2023/09/10 06:08:08;;;;;;;12.93;6.55;;;;;;;17.81;100.00;100768.66;5589296;31;33925;-67
2023/09/10 06:11:11;;;;;;;18.00;6.53;;;;;;;17.90;100.00;100763.94;5588855;31;34553;-67
2023/09/10 06:14:14;;;;;;;13.27;6.95;;;;;;;17.99;100.00;100770.75;5588919;31;34103;-66
2023/09/10 06:17:18;;;;;;;10.00;6.87;;;;;;;18.12;100.00;100772.59;5589154;31;34499;-67
2023/09/10 06:20:21;;;;;;;13.35;7.35;;;;;;;18.27;100.00;100772.37;5588813;31;34267;-66
2023/09/10 06:23:25;;;;;;;9.70;6.50;;;;;;;18.40;100.00;100778.56;5588846;31;33958;-67
2023/09/10 06:26:29;;;;;;;10.38;6.87;;;;;;;18.54;100.00;100772.16;5589154;31;34489;-66
2023/09/10 06:29:32;;;;;;;14.50;6.80;;;;;;;18.85;100.00;100779.53;5588834;31;33794;-66
2023/09/10 06:32:35;;;;;;;11.15;6.18;;;;;;;19.40;100.00;100782.59;5589047;31;34434;-66
2023/09/10 06:35:38;;;;;;;8.63;5.87;;;;;;;20.14;100.00;100781.91;5589155;31;33762;-67
2023/09/10 06:38:47;;;;;;;9.18;5.93;;;;;;;20.72;100.00;100788.59;5588751;31;33820;-67
2023/09/10 06:41:54;;;;;;;;;;;;;;;21.54;100.00;100792.56;5589096;31;34571;-67
2023/09/10 06:44:57;;;;;;;9.98;5.50;;;;;;;22.24;100.00;100781.94;5589620;31;34216;-67
2023/09/10 06:48:01;;;;;;;11.45;5.65;;;;;;;22.89;100.00;100800.75;5591129;31;34019;-67
2023/09/10 06:51:03;;;;;;;9.10;5.47;;;;;;;23.48;100.00;100796.00;5591097;31;34110;-67
2023/09/10 06:54:06;;;;;;;7.50;5.03;;;;;;;23.74;95.81;100796.22;5590906;31;34673;-67
2023/09/10 06:57:09;;;;;;;7.68;4.68;;;;;;;24.05;90.96;100805.69;5590799;31;34567;-67
2023/09/10 07:00:13;;;;;;;8.90;5.40;;;;;;;24.89;81.86;100811.88;5590382;31;34552;-67
2023/09/10 07:03:15;;;;;;;7.05;4.93;;;;;;;25.66;74.23;100806.28;5590121;31;34129;-68
2023/09/10 07:06:19;;;;;;;8.98;5.05;;;;;;;25.45;73.20;100801.69;5590701;31;33597;-68
2023/09/10 07:09:23;;;;;;;7.57;5.10;;;;;;;26.14;67.20;100805.34;5590038;31;33903;-68
2023/09/10 07:12:26;;;;;;;8.30;4.82;;;;;;;25.99;69.58;100807.13;5590359;31;33793;-68
2023/09/10 07:15:29;;;;;;;10.40;4.95;;;;;;;26.83;64.79;100802.56;5590510;31;33808;-68
2023/09/10 07:18:33;;;;;;;10.60;5.32;;;;;;;26.67;64.43;100814.47;5590597;31;33887;-68
2023/09/10 07:21:36;;;;;;;10.43;4.93;;;;;;;26.94;63.28;100812.44;5590494;31;34669;-68
2023/09/10 07:24:40;;;;;;;10.55;4.85;;;;;;;27.94;59.04;100810.28;5590520;31;33911;-69
2023/09/10 07:27:43;;;;;;;8.68;4.80;;;;;;;28.50;56.60;100805.63;5590128;31;34452;-68
2023/09/10 07:30:46;;;;;;;11.20;4.68;;;;;;;28.59;54.90;100811.34;5590502;31;33860;-69
2023/09/10 07:33:48;;;;;;;12.07;5.00;;;;;;;29.02;54.82;100807.97;5590457;31;33910;-69
2023/09/10 07:36:51;;;;;;;7.93;4.68;;;;;;;29.45;51.71;100811.06;5590415;31;33905;-69
2023/09/10 07:39:54;;;;;;;7.75;4.70;;;;;;;30.05;49.12;100812.59;5590267;31;33849;-68
2023/09/10 07:42:59;;;;;;;10.52;5.03;;;;;;;30.26;48.49;100814.03;5590270;31;34523;-68
2023/09/10 07:46:02;;;;;;;7.80;4.80;;;;;;;30.90;46.29;100812.84;5590049;31;33907;-68
2023/09/10 07:49:05;;;;;;;8.20;5.00;;;;;;;31.67;44.30;100808.81;5589636;31;33920;-68
2023/09/10 07:52:07;;;;;;;9.48;4.50;;;;;;;32.04;43.49;100810.72;5589473;31;34138;-69
2023/09/10 07:55:11;;;;;;;11.55;4.70;;;;;;;31.54;43.62;100811.47;5590056;31;33789;-69
2023/09/10 07:58:13;;;;;;;12.18;4.75;;;;;;;32.30;42.55;100811.09;5589866;31;34874;-69
2023/09/10 08:01:19;;;;;;;7.40;4.65;;;;;;;33.01;40.13;100816.09;5589730;31;33838;-69
2023/09/10 08:04:22;;;;;;;7.80;4.37;;;;;;;32.84;39.84;100815.06;5589677;31;33933;-69
2023/09/10 08:07:24;;;;;;;11.32;4.53;;;;;;;31.71;43.06;100800.84;5590060;31;33927;-69
2023/09/10 08:10:27;;;;;;;7.45;4.57;;;;;;;31.83;42.72;100803.94;5589952;31;33904;-69
2023/09/10 08:13:30;;;;;;;9.77;4.30;;;;;;;31.82;41.71;100794.88;5589671;31;33835;-69
2023/09/10 08:16:32;;;;;;;7.50;4.72;;;;;;;31.14;42.62;100791.72;5589778;31;33921;-69
2023/09/10 08:19:35;;;;;;;8.80;4.25;;;;;;;30.95;44.99;100793.59;5589837;31;35109;-69
2023/09/10 08:22:38;;;;;;;12.15;4.82;;;;;;;32.15;42.02;100797.66;5589394;31;34103;-69
2023/09/10 08:25:41;;;;;;;5.70;4.00;;;;;;;33.69;39.55;100801.44;5589460;31;34425;-69
2023/09/10 08:28:44;;;;;;;9.65;4.32;;;;;;;34.74;35.04;100801.78;5588844;31;33753;-68
2023/09/10 08:31:47;;;;;;;12.80;4.37;;;;;;;34.60;35.23;100795.53;5589841;31;33836;-69
2023/09/10 08:34:50;;;;;;;6.78;4.30;;;;;;;33.98;36.77;100792.75;5589113;31;33797;-70
2023/09/10 08:37:52;;;;;;;8.73;4.20;;;;;;;32.40;38.98;100791.69;5589284;31;33965;-70
2023/09/10 08:41:06;;;;;;;10.07;4.22;;;;;;;34.57;36.00;100796.94;5589227;31;33960;-70
2023/09/10 08:44:12;;;;;;;8.63;4.22;;;;;;;34.92;33.89;100784.12;5589505;31;33920;-70
2023/09/10 08:47:19;;;;;;;8.35;4.03;;;;;;;35.25;34.94;100779.84;5589947;31;33820;-70
2023/09/10 08:50:22;;;;;;;5.93;3.87;;;;;;;35.31;34.42;100778.56;5589264;31;34519;-70
2023/09/10 08:53:26;;;;;;;15.05;4.30;;;;;;;37.30;31.11;100781.59;5589036;31;34881;-70
2023/09/10 08:56:30;;;;;;;6.32;4.05;;;;;;;36.96;31.37;100780.66;5589162;31;34167;-70
2023/09/10 08:59:35;;;;;;;19.20;4.93;;;;;;;33.80;35.21;100772.53;5589279;31;33921;-70
2023/09/10 09:02:43;;;;;;;8.55;3.92;;;;;;;33.07;36.82;100756.28;5589363;31;34511;-70
2023/09/10 09:05:49;;;;;;;7.45;4.30;;;;;;;30.85;41.54;100761.66;5587569;31;33833;-69
2023/09/10 09:08:54;;;;;;;17.83;4.97;;;;;;;29.97;41.09;100758.47;5589048;31;33999;-69
2023/09/10 09:12:03;;;;;;;9.43;4.60;;;;;;;29.12;44.34;100747.00;5588078;31;34812;-69
2023/09/10 09:15:08;;;;;;;8.48;4.37;;;;;;;27.63;47.62;100749.47;5589391;31;34856;-68
2023/09/10 09:18:14;;;;;;;10.30;4.85;;;;;;;27.69;48.90;100745.66;5589200;31;33807;-68
2023/09/10 09:21:18;;;;;;;11.02;4.90;;;;;;;27.42;49.34;100751.31;5589142;31;34489;-68
2023/09/10 09:24:22;;;;;;;9.00;4.65;;;;;;;26.79;52.56;100747.81;5587875;31;34364;-68
2023/09/10 09:27:26;;;;;;;7.80;5.25;;;;;;;26.97;50.92;100737.56;5588713;31;33995;-68
2023/09/10 09:30:29;;;;;;;12.25;4.97;;;;;;;26.67;50.92;100738.25;5589068;31;33819;-68
2023/09/10 09:33:32;;;;;;;11.40;5.20;;;;;;;26.49;52.71;100734.06;5589703;31;34237;-68
2023/09/10 09:36:39;;;;;;;9.05;5.20;;;;;;;26.32;54.32;100723.38;5589020;31;34695;-68
2023/09/10 09:39:45;;;;;;;6.53;5.12;;;;;;;26.45;52.54;100727.50;5588506;31;33896;-68
2023/09/10 09:42:49;;;;;;;8.95;5.43;;;;;;;26.54;52.01;100722.38;5588647;31;33867;-68
2023/09/10 09:45:51;;;;;;;11.98;5.30;;;;;;;26.52;54.38;100722.66;5588524;31;33901;-68
2023/09/10 09:48:55;;;;;;;10.45;5.22;;;;;;;26.46;54.25;100717.47;5588578;31;33990;-69
2023/09/10 09:51:58;;;;;;;12.65;5.22;;;;;;;26.56;54.59;100712.06;5589014;31;33839;-69
2023/09/10 09:55:05;;;;;;;14.95;5.22;;;;;;;26.62;55.07;100711.00;5588556;31;34010;-68
2023/09/10 09:58:08;;;;;;;12.20;4.82;;;;;;;26.80;54.89;100705.91;5589074;31;33830;-68
2023/09/10 10:01:12;;;;;;;14.10;5.10;;;;;;;26.75;53.07;100702.34;5589250;31;33954;-69
2023/09/10 10:04:17;;;;;;;8.68;4.68;;;;;;;26.81;51.37;100706.72;5588950;31;34029;-68
2023/09/10 10:07:22;;;;;;;10.40;5.00;;;;;;;26.78;50.11;100704.53;5588705;31;33870;-69
2023/09/10 10:10:34;;;;;;;9.20;4.93;;;;;;;26.73;49.68;100699.06;5588652;31;34555;-68
2023/09/10 10:13:39;;;;;;;6.20;4.40;;;;;;;26.59;51.28;100706.91;5588333;31;33914;-67
2023/09/10 10:16:42;;;;;;;8.68;4.20;;;;;;;26.67;50.61;100694.72;5588539;31;34801;-67
2023/09/10 10:19:46;;;;;;;6.45;4.30;;;;;;;26.81;49.86;100687.69;5588541;31;33869;-68
2023/09/10 10:22:50;;;;;;;10.07;4.37;;;;;;;26.99;50.24;100692.66;5588588;31;34474;-67
2023/09/10 10:25:53;;;;;;;6.22;4.07;;;;;;;27.30;48.82;100684.56;5587883;31;34702;-68
2023/09/10 10:28:58;;;;;;;7.65;4.30;;;;;;;27.44;46.92;100683.75;5588505;31;33989;-66
2023/09/10 10:32:03;;;;;;;7.43;4.35;;;;;;;27.34;45.94;100681.00;5588727;31;33854;-67
2023/09/10 10:35:10;;;;;;;5.75;4.22;;;;;;;27.35;47.07;100682.66;5588527;31;33916;-68
2023/09/10 10:38:20;;;;;;;7.30;4.12;;;;;;;27.46;46.86;100678.81;5588206;31;34074;-68
2023/09/10 10:41:28;;;;;;;7.68;4.40;;;;;;;27.51;46.27;100678.84;5588512;31;33912;-69
2023/09/10 10:44:35;;;;;;;5.97;4.28;;;;;;;27.73;47.24;100677.78;5588244;31;34404;-69
2023/09/10 10:47:41;;;;;;;15.23;5.40;;;;;;;28.22;44.58;100681.53;5588316;31;33851;-68
2023/09/10 10:50:45;;;;;;;7.37;4.10;;;;;;;29.29;43.39;100671.72;5588148;31;33773;-69
2023/09/10 10:53:50;;;;;;;8.02;4.00;;;;;;;32.20;37.96;100674.84;5588477;31;33808;-69
2023/09/10 10:56:54;;;;;;;7.70;4.20;;;;;;;35.33;32.56;100675.34;5588522;31;34031;-69
2023/09/10 10:59:58;;;;;;;7.28;4.00;;;;;;;37.89;28.04;100676.97;5587530;31;35199;-70
2023/09/10 11:03:09;;;;;;;6.32;3.83;;;;;;;35.76;30.26;100667.03;5587542;31;33930;-69
2023/09/10 11:06:13;;;;;;;9.57;3.67;;;;;;;40.82;25.19;100669.91;5588291;31;34604;-70
2023/09/10 11:09:37;;;;;;;9.23;3.60;;;;;;;42.26;22.72;100671.16;5588376;31;33980;-70
2023/09/10 11:13:06;;;;;;;4.85;3.47;;;;;;;42.52;21.83;100669.53;5588037;31;34490;-69
2023/09/10 11:16:09;;;;;;;6.55;3.50;;;;;;;40.79;23.24;100656.75;5587975;31;34642;-69
2023/09/10 11:19:43;;;;;;;7.50;3.85;;;;;;;39.13;24.73;100656.00;5587940;31;33796;-70
2023/09/10 11:23:06;;;;;;;8.57;3.40;;;;;;;42.87;21.14;100664.50;5582851;31;33819;-69
2023/09/10 11:26:12;;;;;;;6.62;3.30;;;;;;;43.15;20.77;100656.50;5588157;31;33859;-70
2023/09/10 11:29:17;;;;;;;5.77;3.33;;;;;;;44.07;19.77;100651.84;5588311;31;34591;-68
2023/09/10 11:32:20;;;;;;;8.13;3.95;;;;;;;42.16;20.72;100652.25;5590797;31;34879;-69
2023/09/10 11:35:25;;;;;;;6.00;3.00;;;;;;;42.68;21.32;100651.50;5590778;31;34415;-69
2023/09/10 11:38:30;;;;;;;7.37;3.40;;;;;;;42.49;20.77;100654.37;5591071;31;33987;-69
2023/09/10 11:41:33;;;;;;;5.25;3.55;;;;;;;42.44;20.61;100654.69;5590496;31;34864;-69
2023/09/10 11:44:36;;;;;;;4.40;3.10;;;;;;;43.30;19.80;100644.28;5590295;31;34804;-69
2023/09/10 11:47:46;;;;;;;6.90;3.30;;;;;;;44.78;18.64;100649.56;5590502;31;34551;-69
2023/09/10 11:50:51;;;;;;;4.20;3.33;;;;;;;44.32;18.76;100640.87;5590375;31;33975;-68
2023/09/10 11:53:54;;;;;;;6.22;3.12;;;;;;;43.99;19.26;100639.00;5590363;31;34453;-69
2023/09/10 11:56:58;;;;;;;7.37;3.58;;;;;;;44.39;19.18;100631.72;5590377;31;33814;-69
2023/09/10 12:00:01;;;;;;;7.50;3.25;;;;;;;45.56;18.25;100629.44;5590404;31;34838;-69
2023/09/10 12:03:13;;;;;;;4.25;3.20;;;;;;;48.01;16.32;100624.53;5590383;31;33891;-67
2023/09/10 12:06:16;;;;;;;5.68;3.05;;;;;;;46.55;16.63;100618.97;5590728;31;33923;-69
2023/09/10 12:09:19;;;;;;;4.70;3.30;;;;;;;44.68;17.98;100615.91;5590715;31;34561;-70
2023/09/10 12:12:29;;;;;;;5.70;3.50;;;;;;;44.73;18.56;100615.53;5590488;31;33852;-70
2023/09/10 12:15:33;;;;;;;10.77;3.80;;;;;;;45.33;17.90;100613.75;5590223;31;34694;-69
2023/09/10 12:18:37;;;;;;;7.50;3.10;;;;;;;44.45;17.98;100610.56;5590165;31;33961;-69
2023/09/10 12:21:41;;;;;;;5.35;3.28;;;;;;;44.29;18.53;100608.09;5590097;31;33867;-69
2023/09/10 12:24:44;;;;;;;6.70;3.53;;;;;;;46.75;16.24;100610.06;5590068;31;33853;-69
2023/09/10 12:27:47;;;;;;;5.93;3.85;;;;;;;43.90;18.42;100602.19;5590054;31;33946;-69
2023/09/10 12:30:52;;;;;;;5.75;3.47;;;;;;;46.02;17.07;100601.41;5589878;31;34473;-69
2023/09/10 12:33:55;;;;;;;7.78;3.30;;;;;;;46.78;16.40;100596.00;5590013;31;33918;-69
2023/09/10 12:36:58;;;;;;;6.50;3.00;;;;;;;43.99;17.98;100579.50;5589721;31;34480;-68
2023/09/10 12:40:01;;;;;;;7.28;3.30;;;;;;;42.68;19.41;100576.16;5590005;31;33801;-68
2023/09/10 12:43:04;;;;;;;6.37;3.40;;;;;;;42.47;19.16;100576.63;5589246;31;33847;-69
2023/09/10 12:46:07;;;;;;;4.47;3.17;;;;;;;41.98;20.10;100582.28;5589741;31;33838;-68
2023/09/10 12:49:12;;;;;;;7.95;3.35;;;;;;;42.99;18.54;100588.88;5589825;31;34576;-68
2023/09/10 12:52:15;;;;;;;5.70;3.45;;;;;;;43.41;18.39;100582.16;5589709;31;35226;-69
2023/09/10 12:55:17;;;;;;;3.78;3.30;;;;;;;42.38;19.55;100570.53;5590242;31;33920;-70
2023/09/10 12:58:21;;;;;;;5.25;3.37;;;;;;;45.34;16.82;100576.13;5589679;31;33850;-69
2023/09/10 13:01:25;;;;;;;6.43;3.60;;;;;;;44.81;17.67;100575.97;5589491;31;34135;-68
2023/09/10 13:04:28;;;;;;;7.50;3.47;;;;;;;43.25;18.70;100571.22;5589614;31;34074;-68
2023/09/10 13:07:31;;;;;;;10.70;3.60;;;;;;;43.45;18.77;100569.00;5589889;31;33885;-68
2023/09/10 13:10:34;;;;;;;13.32;4.00;;;;;;;44.57;17.40;100571.88;5589477;31;33996;-68
2023/09/10 13:13:37;;;;;;;6.53;3.47;;;;;;;43.14;18.26;100565.53;5589531;31;33899;-70
2023/09/10 13:16:40;;;;;;;4.37;3.20;;;;;;;46.38;16.01;100574.09;5589572;31;34620;-69
2023/09/10 13:19:43;;;;;;;4.40;3.30;;;;;;;45.29;16.76;100558.91;5589522;31;34570;-68
2023/09/10 13:22:46;;;;;;;6.53;3.28;;;;;;;43.18;18.07;100549.63;5589583;31;33793;-69
2023/09/10 13:25:49;;;;;;;5.82;3.15;;;;;;;44.06;17.92;100557.16;5589420;31;34494;-68
2023/09/10 13:28:52;;;;;;;10.82;3.83;;;;;;;45.83;16.42;100555.75;5589633;31;33829;-69
2023/09/10 13:31:55;;;;;;;11.73;3.75;;;;;;;46.04;16.70;100560.53;5589329;31;34023;-69
2023/09/10 13:34:58;;;;;;;4.15;2.85;;;;;;;45.62;16.20;100558.53;5588728;31;33882;-69
2023/09/10 13:38:01;;;;;;;11.77;3.42;;;;;;;44.16;16.98;100540.44;5589607;31;34514;-69
2023/09/10 13:41:04;;;;;;;6.40;3.53;;;;;;;45.64;16.01;100547.75;5589695;31;35371;-68
2023/09/10 13:44:07;;;;;;;8.45;3.15;;;;;;;47.99;14.45;100545.37;5589457;31;34065;-69
2023/09/10 13:47:09;;;;;;;5.00;3.05;;;;;;;47.13;15.46;100547.28;5589040;31;34466;-69
2023/09/10 13:50:12;;;;;;;8.65;3.17;;;;;;;46.22;15.69;100538.87;5589344;31;34976;-69
2023/09/10 13:53:15;;;;;;;5.75;3.28;;;;;;;48.94;14.46;100546.25;5588875;31;33926;-69
2023/09/10 13:56:19;;;;;;;10.93;3.90;;;;;;;48.06;15.02;100531.25;5589271;31;33882;-68
2023/09/10 13:59:21;;;;;;;5.65;3.22;;;;;;;46.37;16.46;100530.41;5589319;31;34605;-69
2023/09/10 14:02:24;;;;;;;6.40;3.03;;;;;;;47.27;15.38;100526.72;5588950;31;34232;-68
2023/09/10 14:05:28;;;;;;;7.62;3.20;;;;;;;44.59;17.26;100523.91;5588826;31;33787;-69
2023/09/10 14:08:34;;;;;;;9.27;4.20;;;;;;;47.18;15.99;100520.75;5588886;31;34586;-68
2023/09/10 14:11:36;;;;;;;16.65;4.28;;;;;;;43.41;18.74;100513.12;5588724;31;33831;-69